createdAt,value
2022-12-11T00:02:26.496Z,86.94
2022-12-11T00:04:56.543Z,87.45
2022-12-11T00:07:30.331Z,87.08
2022-12-11T00:10:05.033Z,87.03
2022-12-11T00:12:34.421Z,87.63
2022-12-11T00:15:02.013Z,87.06
2022-12-11T00:17:41.503Z,86.46
2022-12-11T00:20:14.976Z,87.00
2022-12-11T00:22:44.817Z,87.45
2022-12-11T00:25:16.669Z,87.51
2022-12-11T00:27:49.860Z,87.43
2022-12-11T00:30:20.007Z,86.54
2022-12-11T00:32:55.102Z,86.60
2022-12-11T00:35:25.482Z,86.34
2022-12-11T00:37:55.642Z,86.92
2022-12-11T00:40:23.662Z,87.41
2022-12-11T00:43:00.201Z,87.69
2022-12-11T00:45:55.784Z,87.92
2022-12-11T00:48:23.073Z,87.65
2022-12-11T00:50:51.670Z,87.93
2022-12-11T00:53:26.490Z,88.11
2022-12-11T00:55:56.594Z,88.36
2022-12-11T00:58:25.420Z,88.48
2022-12-11T01:00:58.827Z,88.23
2022-12-11T01:03:25.804Z,88.16
2022-12-11T01:06:04.965Z,88.08
2022-12-11T01:08:35.433Z,87.49
2022-12-11T01:11:09.271Z,87.17
2022-12-11T01:13:36.854Z,87.39
2022-12-11T01:16:15.389Z,87.54
2022-12-11T01:18:50.061Z,87.96
2022-12-11T01:21:50.251Z,87.75
2022-12-11T01:27:35.895Z,87.56
2022-12-11T01:30:10.004Z,86.90
2022-12-11T01:32:41.178Z,87.01
2022-12-11T01:35:10.632Z,87.05
2022-12-11T01:40:35.681Z,86.67
2022-12-11T01:43:36.001Z,86.56
2022-12-11T01:46:06.207Z,86.83
2022-12-11T01:48:42.451Z,87.39
2022-12-11T01:51:21.264Z,87.70
2022-12-11T01:54:21.667Z,86.69
2022-12-11T01:57:05.380Z,86.42
2022-12-11T01:59:36.751Z,86.13
2022-12-11T02:02:26.254Z,86.36
2022-12-11T02:05:00.972Z,87.57
2022-12-11T02:08:01.090Z,87.51
2022-12-11T02:11:20.019Z,87.57
2022-12-11T02:14:30.554Z,87.31
2022-12-11T02:17:15.780Z,87.53
2022-12-11T02:20:28.925Z,87.82
2022-12-11T02:23:21.727Z,87.56
2022-12-11T02:26:05.485Z,87.22
2022-12-11T02:28:40.447Z,86.07
2022-12-11T02:31:14.251Z,85.91
2022-12-11T02:33:51.971Z,86.72
2022-12-11T02:36:30.668Z,85.87
2022-12-11T02:39:06.431Z,86.42
2022-12-11T02:41:39.657Z,86.83
2022-12-11T02:44:09.332Z,87.25
2022-12-11T02:46:39.852Z,86.99
2022-12-11T02:49:11.600Z,86.87
2022-12-11T02:51:44.999Z,86.67
2022-12-11T02:54:21.670Z,86.89
2022-12-11T02:56:59.922Z,86.86
2022-12-11T02:59:39.310Z,86.97
2022-12-11T03:02:06.769Z,87.11
2022-12-11T03:04:36.761Z,87.33
2022-12-11T03:07:14.459Z,86.73
2022-12-11T03:09:46.106Z,86.76
2022-12-11T03:12:39.339Z,86.42
2022-12-11T03:15:11.105Z,86.78
2022-12-11T03:17:45.514Z,86.80
2022-12-11T03:20:30.078Z,87.05
2022-12-11T03:23:30.326Z,87.19
2022-12-11T03:26:19.997Z,87.20
2022-12-11T03:29:14.426Z,87.36
2022-12-11T03:31:45.487Z,87.20
2022-12-11T03:34:32.025Z,87.42
2022-12-11T03:37:09.326Z,87.06
2022-12-11T03:39:46.399Z,87.38
2022-12-11T03:42:16.985Z,87.00
2022-12-11T03:44:51.600Z,87.08
2022-12-11T03:47:24.635Z,87.02
2022-12-11T03:49:54.022Z,87.21
2022-12-11T03:52:29.487Z,87.16
2022-12-11T03:55:06.296Z,86.93
2022-12-11T03:57:36.107Z,86.37
2022-12-11T04:00:19.497Z,86.75
2022-12-11T04:03:13.249Z,86.92
2022-12-11T04:05:55.310Z,86.50
2022-12-11T04:08:26.052Z,86.29
2022-12-11T04:11:14.872Z,85.88
2022-12-11T04:13:41.847Z,86.43
2022-12-11T04:16:16.029Z,86.91
2022-12-11T04:19:10.586Z,87.30
2022-12-11T04:21:56.152Z,86.78
2022-12-11T04:24:23.021Z,87.07
2022-12-11T04:26:53.985Z,86.87
2022-12-11T04:29:21.554Z,87.02
2022-12-11T04:31:55.180Z,86.66
2022-12-11T04:34:21.944Z,86.73
2022-12-11T04:36:51.719Z,87.04
2022-12-11T04:39:20.233Z,87.01
2022-12-11T04:41:49.573Z,87.09
2022-12-11T04:44:26.076Z,86.77
2022-12-11T04:46:56.039Z,86.88
2022-12-11T04:49:23.327Z,86.63
2022-12-11T04:52:15.003Z,86.17
2022-12-11T08:17:32.857Z,88.49
2022-12-11T08:27:01.543Z,88.87
2022-12-11T08:29:56.295Z,88.40
2022-12-11T08:36:32.229Z,89.18
2022-12-11T08:56:43.207Z,88.60
2022-12-11T09:00:08.202Z,88.60
2022-12-11T15:19:05.010Z,87.56
2022-12-11T15:22:00.064Z,87.72
2022-12-11T15:58:06.725Z,88.62
2022-12-11T17:41:50.101Z,90.68
2022-12-11T17:44:46.834Z,90.78
2022-12-11T17:51:40.090Z,90.68
2022-12-11T18:03:45.544Z,90.52
2022-12-11T18:06:32.974Z,90.60
2022-12-11T18:18:04.441Z,90.29
2022-12-11T18:20:35.897Z,90.24
2022-12-11T18:23:16.594Z,90.45
2022-12-11T18:25:46.860Z,90.32
2022-12-11T18:28:20.020Z,90.78
2022-12-11T18:30:49.811Z,90.69
2022-12-11T18:33:20.097Z,90.62
2022-12-11T18:35:50.355Z,90.60
2022-12-11T18:38:24.775Z,90.50
2022-12-11T18:40:55.842Z,90.39
2022-12-11T18:43:26.209Z,90.75
2022-12-11T18:45:55.415Z,90.43
2022-12-11T18:48:26.993Z,90.92
2022-12-11T18:51:00.246Z,90.98
2022-12-11T18:53:39.160Z,90.85
2022-12-11T18:56:10.133Z,90.78
2022-12-11T20:24:30.029Z,90.42
2022-12-11T20:46:36.004Z,90.01
2022-12-11T21:13:49.618Z,89.82
2022-12-11T21:16:20.142Z,89.47
2022-12-11T21:19:01.735Z,89.64
2022-12-11T21:21:43.390Z,90.04
2022-12-11T21:24:25.447Z,89.94
2022-12-11T21:27:12.560Z,89.73
2022-12-11T21:29:40.496Z,89.83
2022-12-11T21:32:09.216Z,89.56
2022-12-11T21:34:43.130Z,89.70
2022-12-11T21:46:20.372Z,89.55
2022-12-11T21:52:00.659Z,89.23
2022-12-11T22:58:25.293Z,89.06
2022-12-11T23:07:35.380Z,89.01
2022-12-11T23:10:29.369Z,88.97
2022-12-11T23:37:08.888Z,89.58
2022-12-11T23:42:53.154Z,89.50
2022-12-11T23:45:25.514Z,89.49
2022-12-11T23:47:58.790Z,89.64
